createdAt,value
2022-10-19T00:01:22.769Z,101330.78
2022-10-19T00:03:55.303Z,101321.22
2022-10-19T00:06:29.639Z,101318.75
2022-10-19T00:09:04.822Z,101323.19
2022-10-19T00:11:33.772Z,101325.63
2022-10-19T00:14:01.770Z,101319.31
2022-10-19T00:16:33.387Z,101323.00
2022-10-19T00:19:04.606Z,101319.84
2022-10-19T00:21:31.784Z,101314.47
2022-10-19T00:23:58.854Z,101313.78
2022-10-19T00:26:27.928Z,101315.56
2022-10-19T00:28:56.555Z,101319.00
2022-10-19T00:31:24.064Z,101324.19
2022-10-19T00:33:51.894Z,101324.75
2022-10-19T00:36:30.211Z,101320.28
2022-10-19T00:38:58.565Z,101320.50
2022-10-19T00:41:29.579Z,101320.84
2022-10-19T00:44:15.939Z,101310.50
2022-10-19T00:46:48.766Z,101318.06
2022-10-19T00:49:24.051Z,101319.41
2022-10-19T00:51:55.025Z,101322.69
2022-10-19T00:54:22.551Z,101322.56
2022-10-19T00:56:55.218Z,101319.84
2022-10-19T00:59:25.182Z,101317.25
2022-10-19T01:01:53.315Z,101318.34
2022-10-19T01:04:22.059Z,101310.38
2022-10-19T01:06:48.942Z,101308.44
2022-10-19T01:09:15.824Z,101307.38
2022-10-19T01:12:06.403Z,101313.19
2022-10-19T01:15:10.547Z,101309.53
2022-10-19T01:18:12.994Z,101311.16
2022-10-19T01:21:03.898Z,101312.81
2022-10-19T01:23:54.968Z,101308.75
2022-10-19T01:26:52.766Z,101301.72
2022-10-19T01:29:56.206Z,101295.91
2022-10-19T01:32:31.629Z,101292.06
2022-10-19T01:35:18.568Z,101286.59
2022-10-19T01:38:28.015Z,101294.56
2022-10-19T01:41:13.716Z,101296.50
2022-10-19T01:44:05.693Z,101292.63
2022-10-19T01:46:57.520Z,101281.78
2022-10-19T01:49:49.871Z,101281.00
2022-10-19T01:52:21.124Z,101279.59
2022-10-19T01:54:52.862Z,101277.28
2022-10-19T01:57:32.556Z,101279.38
2022-10-19T02:00:07.189Z,101273.59
2022-10-19T02:02:48.826Z,101274.69
2022-10-19T02:05:19.248Z,101277.31
2022-10-19T02:07:56.163Z,101275.31
2022-10-19T02:10:24.007Z,101279.78
2022-10-19T02:12:53.213Z,101278.44
2022-10-19T02:15:24.055Z,101275.94
2022-10-19T02:17:56.902Z,101275.84
2022-10-19T02:20:24.802Z,101274.81
2022-10-19T02:22:51.794Z,101272.31
2022-10-19T02:25:19.246Z,101273.59
2022-10-19T02:27:47.296Z,101262.66
2022-10-19T02:30:18.926Z,101264.06
2022-10-19T02:32:45.926Z,101255.47
2022-10-19T02:35:14.702Z,101254.69
2022-10-19T02:37:41.991Z,101246.31
2022-10-19T02:40:09.893Z,101251.72
2022-10-19T02:42:48.437Z,101241.81
2022-10-19T02:45:29.367Z,101240.50
2022-10-19T02:48:05.672Z,101234.59
2022-10-19T02:50:32.774Z,101237.22
2022-10-19T02:53:00.167Z,101224.56
2022-10-19T02:55:28.638Z,101230.19
2022-10-19T02:57:55.527Z,101222.47
2022-10-19T03:00:22.377Z,101225.56
2022-10-19T03:02:49.412Z,101224.97
2022-10-19T03:05:16.334Z,101225.63
2022-10-19T03:07:43.407Z,101217.09
2022-10-19T03:10:10.363Z,101218.44
2022-10-19T03:12:37.253Z,101215.22
2022-10-19T03:15:05.120Z,101215.13
2022-10-19T03:17:32.380Z,101220.03
2022-10-19T03:19:59.521Z,101216.72
2022-10-19T03:22:26.404Z,101224.88
2022-10-19T03:24:53.303Z,101230.63
2022-10-19T03:27:20.218Z,101217.44
2022-10-19T03:29:47.178Z,101223.63
2022-10-19T03:32:15.136Z,101225.94
2022-10-19T03:34:42.058Z,101226.50
2022-10-19T03:37:09.008Z,101220.31
2022-10-19T03:39:36.963Z,101221.00
2022-10-19T03:42:03.914Z,101214.53
2022-10-19T03:44:30.912Z,101220.47
2022-10-19T03:46:58.777Z,101209.72
2022-10-19T03:49:25.771Z,101217.47
2022-10-19T03:51:52.683Z,101221.00
2022-10-19T03:54:22.527Z,101223.06
2022-10-19T03:56:53.370Z,101226.00
2022-10-19T03:59:20.354Z,101223.25
2022-10-19T04:01:47.271Z,101227.00
2022-10-19T04:04:18.231Z,101229.06
2022-10-19T04:06:48.235Z,101233.34
2022-10-19T04:09:19.313Z,101235.53
2022-10-19T04:11:46.982Z,101236.50
2022-10-19T04:14:26.659Z,101238.06
2022-10-19T04:16:59.133Z,101235.16
2022-10-19T04:19:26.065Z,101235.75
2022-10-19T04:21:53.007Z,101238.50
2022-10-19T04:24:20.007Z,101234.09
2022-10-19T04:26:50.120Z,101237.94
2022-10-19T04:29:19.194Z,101236.81
2022-10-19T04:31:49.148Z,101233.81
2022-10-19T04:34:16.915Z,101234.94
2022-10-19T04:36:45.235Z,101236.00
2022-10-19T04:39:12.883Z,101241.97
2022-10-19T04:41:39.887Z,101242.66
2022-10-19T04:44:07.395Z,101246.81
2022-10-19T04:46:35.171Z,101252.72
2022-10-19T04:49:04.202Z,101245.69
2022-10-19T04:51:31.349Z,101247.09
2022-10-19T04:53:59.932Z,101243.09
2022-10-19T04:56:28.411Z,101235.53
2022-10-19T04:59:00.412Z,101228.09
2022-10-19T05:01:31.404Z,101236.66
2022-10-19T05:04:02.451Z,101236.91
2022-10-19T05:06:31.730Z,101241.16
2022-10-19T05:08:59.798Z,101231.00
2022-10-19T05:11:27.394Z,101237.03
2022-10-19T05:13:54.386Z,101231.28
2022-10-19T05:16:23.508Z,101231.00
2022-10-19T05:18:56.179Z,101230.31
2022-10-19T05:21:23.159Z,101231.66
2022-10-19T05:23:54.827Z,101224.41
2022-10-19T05:26:26.199Z,101220.53
2022-10-19T05:28:57.576Z,101222.75
2022-10-19T05:31:31.474Z,101221.19
2022-10-19T05:33:58.940Z,101226.19
2022-10-19T05:36:29.792Z,101224.94
2022-10-19T05:38:58.277Z,101219.53
2022-10-19T05:41:28.343Z,101219.94
2022-10-19T05:43:59.505Z,101214.00
2022-10-19T05:46:30.662Z,101212.38
2022-10-19T05:48:58.893Z,101216.25
2022-10-19T05:51:28.040Z,101214.56
2022-10-19T05:53:57.341Z,101213.63
2022-10-19T05:56:30.132Z,101205.78
2022-10-19T05:58:59.751Z,101214.84
2022-10-19T06:01:29.833Z,101211.09
2022-10-19T06:03:59.034Z,101210.97
2022-10-19T06:06:28.157Z,101211.50
2022-10-19T06:08:56.873Z,101215.81
2022-10-19T06:11:35.591Z,101213.56
2022-10-19T06:14:11.154Z,101210.66
2022-10-19T06:16:42.497Z,101218.13
2022-10-19T06:19:09.479Z,101211.94
2022-10-19T06:21:37.251Z,101214.97
2022-10-19T06:24:06.495Z,101212.38
2022-10-19T06:26:35.459Z,101211.41
2022-10-19T06:29:04.662Z,101219.47
2022-10-19T06:31:35.563Z,101214.19
2022-10-19T06:34:02.910Z,101220.75
2022-10-19T06:36:31.979Z,101219.66
2022-10-19T06:39:01.558Z,101223.28
2022-10-19T06:41:30.340Z,101223.56
2022-10-19T06:43:57.770Z,101240.09
2022-10-19T06:46:26.907Z,101241.34
2022-10-19T06:48:59.422Z,101239.31
2022-10-19T06:51:29.464Z,101244.00
2022-10-19T06:53:57.501Z,101241.38
2022-10-19T06:56:26.024Z,101244.38
2022-10-19T06:58:53.931Z,101245.03
2022-10-19T07:01:21.063Z,101247.28
2022-10-19T07:03:48.039Z,101247.19
2022-10-19T07:06:18.308Z,101249.78
2022-10-19T07:08:45.246Z,101249.78
2022-10-19T07:11:17.911Z,101242.63
2022-10-19T07:13:44.829Z,101241.34
2022-10-19T07:16:19.553Z,101248.00
2022-10-19T07:18:51.225Z,101247.72
2022-10-19T07:21:20.522Z,101253.34
2022-10-19T07:23:48.284Z,101236.94
2022-10-19T07:26:27.261Z,101242.44
2022-10-19T07:28:57.067Z,101237.91
2022-10-19T07:31:27.824Z,101232.91
2022-10-19T07:34:01.228Z,101234.88
2022-10-19T07:36:30.512Z,101241.75
2022-10-19T07:38:57.745Z,101243.38
2022-10-19T07:41:26.448Z,101242.81
2022-10-19T07:43:54.389Z,101247.41
2022-10-19T07:46:26.270Z,101243.53
2022-10-19T07:48:53.811Z,101245.31
2022-10-19T07:51:21.591Z,101255.25
2022-10-19T07:53:48.861Z,101245.91
2022-10-19T07:56:20.609Z,101247.44
2022-10-19T07:58:49.656Z,101249.78
2022-10-19T08:01:22.977Z,101252.50
2022-10-19T08:06:40.446Z,101251.75
2022-10-19T08:09:07.482Z,101259.97
2022-10-19T08:11:36.123Z,101256.84
2022-10-19T08:14:03.849Z,101253.09
2022-10-19T08:16:32.897Z,101252.84
2022-10-19T08:19:08.507Z,101253.69
2022-10-19T08:21:37.570Z,101251.19
2022-10-19T08:24:05.820Z,101248.31
2022-10-19T08:26:36.531Z,101252.28
2022-10-19T08:29:13.292Z,101247.63
2022-10-19T08:31:41.683Z,101245.56
2022-10-19T08:34:09.044Z,101258.63
2022-10-19T08:36:39.439Z,101253.41
2022-10-19T08:39:08.975Z,101255.06
2022-10-19T08:41:38.144Z,101249.81
2022-10-19T08:44:13.848Z,101245.00
2022-10-19T08:47:02.658Z,101250.78
2022-10-19T08:49:32.851Z,101248.31
2022-10-19T08:52:24.590Z,101241.53
2022-10-19T08:55:15.205Z,101242.78
2022-10-19T08:58:16.558Z,101237.44
2022-10-19T09:01:11.235Z,101242.50
2022-10-19T09:03:54.843Z,101246.09
2022-10-19T09:07:00.347Z,101243.91
2022-10-19T09:09:31.021Z,101244.28
2022-10-19T09:12:06.312Z,101249.66
2022-10-19T09:14:49.099Z,101238.44
2022-10-19T09:17:19.770Z,101237.53
2022-10-19T09:19:47.843Z,101232.09
2022-10-19T09:22:25.275Z,101237.31
2022-10-19T09:25:01.797Z,101228.50
2022-10-19T09:27:40.102Z,101229.28
2022-10-19T09:30:20.779Z,101232.97
2022-10-19T09:32:53.874Z,101239.47
2022-10-19T09:35:36.334Z,101224.88
2022-10-19T09:38:06.879Z,101227.06
2022-10-19T09:40:34.956Z,101219.63
2022-10-19T09:43:18.908Z,101222.31
2022-10-19T09:46:19.668Z,101222.56
2022-10-19T09:48:52.478Z,101223.97
2022-10-19T09:51:21.290Z,101216.53
2022-10-19T09:53:54.675Z,101215.28
2022-10-19T09:56:25.840Z,101216.06
2022-10-19T09:58:57.251Z,101217.38
2022-10-19T10:01:43.138Z,101218.16
2022-10-19T10:04:18.529Z,101210.38
2022-10-19T10:06:48.500Z,101210.84
2022-10-19T10:09:23.773Z,101218.69
2022-10-19T10:14:36.006Z,101209.34
2022-10-19T10:17:16.267Z,101206.88
2022-10-19T10:19:52.455Z,101198.97
2022-10-19T10:22:33.148Z,101195.81
2022-10-19T10:25:01.023Z,101192.44
2022-10-19T10:27:38.496Z,101199.25
2022-10-19T10:30:16.483Z,101191.88
2022-10-19T10:32:55.104Z,101191.78
2022-10-19T10:35:35.201Z,101191.59
2022-10-19T10:38:15.130Z,101187.97
2022-10-19T10:40:52.795Z,101183.19
2022-10-19T10:43:28.066Z,101182.66
2022-10-19T10:46:02.104Z,101182.91
2022-10-19T10:48:38.065Z,101179.13
2022-10-19T10:51:23.562Z,101180.91
2022-10-19T10:53:50.520Z,101182.72
2022-10-19T10:56:29.115Z,101174.03
2022-10-19T10:59:15.804Z,101170.91
2022-10-19T11:01:58.585Z,101174.84
2022-10-19T11:04:33.983Z,101172.94
2022-10-19T11:07:16.886Z,101173.72
2022-10-19T11:09:54.591Z,101160.13
2022-10-19T11:12:40.105Z,101161.06
2022-10-19T11:15:21.539Z,101155.50
2022-10-19T11:18:22.818Z,101156.19
2022-10-19T11:21:01.895Z,101152.72
2022-10-19T11:23:59.656Z,101144.53
2022-10-19T11:27:01.541Z,101144.38
2022-10-19T11:30:10.908Z,101153.22
2022-10-19T11:33:05.221Z,101135.34
2022-10-19T11:35:46.059Z,101135.56
2022-10-19T11:38:44.331Z,101131.72
2022-10-19T11:41:35.990Z,101137.38
2022-10-19T11:44:20.101Z,101139.47
2022-10-19T11:47:01.974Z,101129.44
2022-10-19T11:52:55.018Z,101130.81
2022-10-19T11:55:46.285Z,101120.78
2022-10-19T11:58:34.677Z,101126.69
2022-10-19T12:01:44.809Z,101123.84
2022-10-19T12:04:28.603Z,101124.25
2022-10-19T12:07:18.977Z,101118.31
2022-10-19T12:10:48.660Z,101112.38
2022-10-19T12:13:23.512Z,101113.19
2022-10-19T12:15:54.120Z,101099.66
2022-10-19T12:18:32.116Z,101095.59
2022-10-19T12:21:05.048Z,101091.47
2022-10-19T12:23:39.649Z,101079.19
2022-10-19T12:26:11.642Z,101070.28
2022-10-19T12:28:43.365Z,101066.41
2022-10-19T12:31:11.547Z,101061.00
2022-10-19T12:33:49.328Z,101050.84
2022-10-19T12:36:42.665Z,101042.63
2022-10-19T12:39:30.865Z,101039.69
2022-10-19T12:42:16.029Z,101029.66
2022-10-19T12:45:27.222Z,101027.50
2022-10-19T12:48:11.096Z,101025.34
2022-10-19T12:50:50.250Z,101022.91
2022-10-19T12:53:39.209Z,101023.09
2022-10-19T12:56:23.197Z,101020.28
2022-10-19T12:59:02.266Z,101022.41
2022-10-19T13:01:44.311Z,101014.69
2022-10-19T13:04:25.070Z,101007.47
2022-10-19T13:07:09.151Z,101000.19
2022-10-19T13:09:46.044Z,100998.25
2022-10-19T13:12:19.607Z,100994.28
2022-10-19T13:14:51.451Z,100991.00
2022-10-19T13:17:37.134Z,100972.94
2022-10-19T13:20:36.386Z,100983.81
2022-10-19T13:23:06.035Z,100976.91
2022-10-19T13:25:37.161Z,100966.06
2022-10-19T13:28:07.272Z,100958.13
2022-10-19T13:30:38.157Z,100959.75
2022-10-19T13:33:29.582Z,100956.66
2022-10-19T13:35:59.602Z,100936.44
2022-10-19T13:38:28.836Z,100939.44
2022-10-19T13:41:01.859Z,100931.53
2022-10-19T13:43:43.983Z,100943.03
2022-10-19T13:46:30.154Z,100935.63
2022-10-19T13:49:27.780Z,100947.94
2022-10-19T13:52:09.323Z,100936.00
2022-10-19T13:54:54.806Z,100936.00
2022-10-19T13:58:14.039Z,100922.91
2022-10-19T14:01:34.284Z,100921.56
2022-10-19T14:04:18.352Z,100931.47
2022-10-19T14:06:59.456Z,100936.66
2022-10-19T14:09:44.500Z,100932.38
2022-10-19T14:12:31.242Z,100930.66
2022-10-19T14:14:58.547Z,100934.84
2022-10-19T14:17:33.752Z,100928.94
2022-10-19T14:20:01.322Z,100924.66
2022-10-19T14:22:34.094Z,100923.34
2022-10-19T14:25:28.579Z,100922.84
2022-10-19T14:28:06.784Z,100917.81
2022-10-19T14:30:36.640Z,100905.38
2022-10-19T14:33:11.123Z,100908.47
2022-10-19T14:35:41.750Z,100913.25
2022-10-19T14:38:17.610Z,100913.38
2022-10-19T14:40:44.693Z,100905.28
2022-10-19T14:43:28.034Z,100901.53
2022-10-19T14:46:11.959Z,100898.75
2022-10-19T14:48:45.603Z,100900.19
2022-10-19T14:51:48.077Z,100899.72
2022-10-19T14:54:28.919Z,100897.78
2022-10-19T14:57:09.102Z,100901.34
2022-10-19T14:59:48.728Z,100902.69
2022-10-19T15:02:33.661Z,100890.59
2022-10-19T15:05:03.821Z,100902.75
2022-10-19T15:07:40.671Z,100896.00
2022-10-19T15:10:20.614Z,100890.75
2022-10-19T15:12:50.361Z,100894.53
2022-10-19T15:15:27.243Z,100890.91
2022-10-19T15:18:03.168Z,100888.78
2022-10-19T15:20:54.900Z,100883.56
2022-10-19T15:23:46.214Z,100880.59
2022-10-19T15:26:29.280Z,100864.81
2022-10-19T15:29:20.574Z,100868.31
2022-10-19T15:31:47.546Z,100869.81
2022-10-19T15:34:28.824Z,100864.56
2022-10-19T15:37:01.500Z,100858.78
2022-10-19T15:39:38.915Z,100858.16
2022-10-19T15:42:41.134Z,100851.56
2022-10-19T15:45:28.007Z,100842.72
2022-10-19T15:48:10.105Z,100848.97
2022-10-19T15:50:50.181Z,100860.28
2022-10-19T15:53:17.193Z,100848.97
2022-10-19T15:55:44.490Z,100840.63
2022-10-19T15:58:13.242Z,100847.66
2022-10-19T16:00:41.744Z,100852.59
2022-10-19T16:03:09.152Z,100856.03
2022-10-19T16:05:36.828Z,100864.41
2022-10-19T16:08:08.854Z,100859.81
2022-10-19T16:10:38.663Z,100857.00
2022-10-19T16:13:05.574Z,100848.31
2022-10-19T16:15:33.425Z,100846.38
2022-10-19T16:18:00.804Z,100851.28
2022-10-19T16:20:29.967Z,100841.94
2022-10-19T16:22:57.917Z,100837.19
2022-10-19T16:25:25.074Z,100843.56
2022-10-19T16:27:51.967Z,100837.84
2022-10-19T16:30:19.090Z,100854.56
2022-10-19T16:32:48.712Z,100839.16
2022-10-19T16:35:15.841Z,100839.97
2022-10-19T16:37:42.983Z,100839.47
2022-10-19T16:40:10.485Z,100840.94
2022-10-19T16:42:37.876Z,100849.63
2022-10-19T16:45:05.476Z,100845.81
2022-10-19T16:47:32.520Z,100841.22
2022-10-19T16:50:01.961Z,100848.94
2022-10-19T16:52:31.690Z,100845.34
2022-10-19T16:54:59.973Z,100852.53
2022-10-19T16:57:27.160Z,100846.81
2022-10-19T16:59:54.522Z,100856.13
2022-10-19T17:02:22.990Z,100847.94
2022-10-19T17:04:50.083Z,100846.13
2022-10-19T17:07:17.785Z,100853.50
2022-10-19T17:09:44.875Z,100854.13
2022-10-19T17:12:12.414Z,100845.91
2022-10-19T17:14:42.104Z,100840.16
2022-10-19T17:17:11.045Z,100841.41
2022-10-19T17:19:38.549Z,100855.03
2022-10-19T17:22:05.691Z,100851.09
2022-10-19T17:24:32.786Z,100849.59
2022-10-19T17:27:03.186Z,100846.59
2022-10-19T17:29:30.418Z,100856.25
2022-10-19T17:31:57.955Z,100854.75
2022-10-19T17:34:24.891Z,100860.94
2022-10-19T17:36:51.787Z,100858.47
2022-10-19T17:39:25.742Z,100844.91
2022-10-19T17:42:01.595Z,100851.13
2022-10-19T17:44:30.604Z,100852.69
2022-10-19T17:46:57.827Z,100846.09
2022-10-19T17:49:24.892Z,100847.25
2022-10-19T17:51:53.643Z,100845.03
2022-10-19T17:54:20.665Z,100849.91
2022-10-19T17:56:47.787Z,100845.69
2022-10-19T17:59:14.850Z,100844.91
2022-10-19T18:01:42.237Z,100850.50
2022-10-19T18:04:09.204Z,100853.66
2022-10-19T18:06:37.911Z,100858.06
2022-10-19T18:09:08.663Z,100853.81
2022-10-19T18:11:40.386Z,100856.53
2022-10-19T18:14:09.636Z,100869.22
2022-10-19T18:16:42.193Z,100860.84
2022-10-19T18:19:09.437Z,100861.97
2022-10-19T18:21:40.265Z,100870.78
2022-10-19T18:24:14.303Z,100863.00
2022-10-19T18:26:42.687Z,100860.84
2022-10-19T18:29:15.773Z,100857.31
2022-10-19T18:31:43.081Z,100861.16
2022-10-19T18:34:15.219Z,100860.69
2022-10-19T18:36:42.608Z,100852.72
2022-10-19T18:39:12.503Z,100853.97
2022-10-19T18:41:40.638Z,100846.34
2022-10-19T18:44:11.096Z,100850.59
2022-10-19T18:46:38.548Z,100855.47
2022-10-19T18:49:08.331Z,100854.66
2022-10-19T18:51:36.212Z,100843.59
2022-10-19T18:54:03.667Z,100850.59
2022-10-19T18:56:30.732Z,100834.31
2022-10-19T18:58:57.652Z,100832.19
2022-10-19T19:01:28.237Z,100836.88
2022-10-19T19:04:00.313Z,100830.81
2022-10-19T19:06:30.115Z,100825.75
2022-10-19T19:08:59.438Z,100828.13
2022-10-19T19:11:31.827Z,100827.97
2022-10-19T19:14:14.914Z,100815.22
2022-10-19T19:16:43.474Z,100815.50
2022-10-19T19:19:12.973Z,100814.31
2022-10-19T19:21:43.849Z,100809.22
2022-10-19T19:24:15.414Z,100811.53
2022-10-19T19:26:50.341Z,100811.97
2022-10-19T19:29:20.184Z,100801.94
2022-10-19T19:31:48.117Z,100801.16
2022-10-19T19:34:15.235Z,100802.13
2022-10-19T19:36:47.213Z,100795.00
2022-10-19T19:39:18.722Z,100788.97
2022-10-19T19:41:46.240Z,100792.13
2022-10-19T19:44:13.247Z,100790.06
2022-10-19T19:46:40.198Z,100793.09
2022-10-19T19:49:07.291Z,100792.31
2022-10-19T19:51:35.171Z,100803.28
2022-10-19T19:54:02.446Z,100796.59
2022-10-19T19:56:29.626Z,100791.34
2022-10-19T19:58:59.394Z,100786.97
2022-10-19T20:01:27.304Z,100780.22
2022-10-19T20:03:54.466Z,100785.63
2022-10-19T20:06:25.073Z,100781.56
2022-10-19T20:08:54.495Z,100783.50
2022-10-19T20:11:22.631Z,100781.88
2022-10-19T20:13:50.310Z,100782.84
2022-10-19T20:16:25.142Z,100787.38
2022-10-19T20:19:12.648Z,100784.50
2022-10-19T20:21:40.405Z,100792.63
2022-10-19T20:24:08.750Z,100787.41
2022-10-19T20:26:36.305Z,100789.03
2022-10-19T20:29:04.810Z,100788.22
2022-10-19T20:31:33.493Z,100785.63
2022-10-19T20:34:00.635Z,100785.56
2022-10-19T20:36:27.492Z,100785.28
2022-10-19T20:38:57.556Z,100787.34
2022-10-19T20:41:28.568Z,100783.63
2022-10-19T20:43:56.730Z,100780.03
2022-10-19T20:46:28.033Z,100781.25
2022-10-19T20:48:58.020Z,100772.75
2022-10-19T20:51:36.478Z,100773.91
2022-10-19T20:54:07.002Z,100766.06
2022-10-19T20:56:37.091Z,100765.78
2022-10-19T20:59:11.614Z,100770.06
2022-10-19T21:01:40.653Z,100763.88
2022-10-19T21:04:11.178Z,100769.50
2022-10-19T21:06:44.106Z,100757.88
2022-10-19T21:09:13.509Z,100765.84
2022-10-19T21:11:42.825Z,100772.09
2022-10-19T21:14:14.826Z,100764.28
2022-10-19T21:16:42.955Z,100766.75
2022-10-19T21:19:21.756Z,100759.50
2022-10-19T21:21:52.739Z,100752.38
2022-10-19T21:24:27.316Z,100742.00
2022-10-19T21:26:54.532Z,100742.25
2022-10-19T21:29:21.673Z,100729.84
2022-10-19T21:31:52.193Z,100739.22
2022-10-19T21:34:23.553Z,100738.81
2022-10-19T21:36:50.538Z,100733.22
2022-10-19T21:39:18.579Z,100739.25
2022-10-19T21:41:46.354Z,100739.38
2022-10-19T21:44:14.979Z,100730.56
2022-10-19T21:46:45.062Z,100732.06
2022-10-19T21:49:12.549Z,100730.47
2022-10-19T21:51:53.539Z,100741.28
2022-10-19T21:54:29.152Z,100738.09
2022-10-19T21:56:57.645Z,100744.28
2022-10-19T21:59:25.999Z,100741.38
2022-10-19T22:01:55.103Z,100734.25
2022-10-19T22:04:23.627Z,100720.56
2022-10-19T22:06:50.826Z,100726.56
2022-10-19T22:09:22.226Z,100721.13
2022-10-19T22:11:49.434Z,100716.31
2022-10-19T22:14:16.894Z,100709.81
2022-10-19T22:16:43.985Z,100697.66
2022-10-19T22:19:11.405Z,100699.59
2022-10-19T22:24:15.551Z,100697.66
2022-10-19T22:26:50.609Z,100702.16
2022-10-19T22:29:17.876Z,100689.59
2022-10-19T22:31:44.982Z,100689.84
2022-10-19T22:34:16.348Z,100679.81
2022-10-19T22:36:44.686Z,100676.03
2022-10-19T22:39:12.829Z,100677.38
2022-10-19T22:41:39.776Z,100674.53
2022-10-19T22:44:06.757Z,100673.25
2022-10-19T22:46:34.007Z,100673.91
2022-10-19T22:49:01.005Z,100676.13
2022-10-19T22:51:28.020Z,100667.34
2022-10-19T22:53:54.912Z,100663.50
2022-10-19T22:56:21.822Z,100660.06
2022-10-19T22:58:48.819Z,100644.88
2022-10-19T23:01:16.799Z,100634.00
2022-10-19T23:03:44.181Z,100636.09
2022-10-19T23:06:14.096Z,100644.50
2022-10-19T23:08:42.815Z,100647.63
2022-10-19T23:11:10.070Z,100632.03
2022-10-19T23:13:37.259Z,100636.41
2022-10-19T23:16:04.565Z,100631.78
2022-10-19T23:18:33.427Z,100631.22
2022-10-19T23:21:11.191Z,100619.38
2022-10-19T23:23:39.366Z,100621.88
2022-10-19T23:26:20.780Z,100609.00
2022-10-19T23:28:49.638Z,100610.66
2022-10-19T23:31:26.402Z,100614.78
2022-10-19T23:33:54.115Z,100608.75
2022-10-19T23:36:27.981Z,100613.97
2022-10-19T23:38:56.587Z,100607.94
2022-10-19T23:41:23.980Z,100616.59
2022-10-19T23:43:50.902Z,100619.16
2022-10-19T23:46:17.879Z,100622.19
2022-10-19T23:48:44.872Z,100617.78
2022-10-19T23:51:15.736Z,100611.75
2022-10-19T23:53:46.751Z,100616.69
2022-10-19T23:56:20.251Z,100609.31
2022-10-19T23:58:47.825Z,100614.25
